Terminal Aerodrome Forecast
Issued by NWS

Current Version | Previous Version | Graphics & Text | Print | Product List | Glossary On
Versions: 1 2 3 4 5 6 7 8 9 10 11 12 13 14
621
FTUS41 KPBZ 171128
TAFMGW
TAF
KMGW 171128Z 1712/1812 21003KT P6SM BKN250
     FM180700 21004KT 5SM BR BKN040
     FM181000 22004KT 5SM -DZ BR VCSH BKN035=

USA.gov is the U.S. government's official web portal to all federal, state and local government web resources and services.